Time;durP1;ratioP1;P1;durP2;ratioP2;P2;SDS_P1;SDS_P2;PMS_P1;PMS_P2;Temp;Humidity;BMP_temperature;BMP_pressure;BME280_temperature;BME280_humidity;BME280_pressure;Samples;Min_cycle;Max_cycle;Signal;HPM_P1;HPM_P2
2023/09/25 00:00:41;;;;;;;3.97;3.07;;;;;;;;;;5054588;28;20207;-80
2023/09/25 00:03:11;;;;;;;3.70;3.40;;;;;;;;;;5054241;28;20222;-79
2023/09/25 00:05:40;;;;;;;4.00;3.33;;;;;;;;;;5054275;28;20334;-79
2023/09/25 00:08:09;;;;;;;3.97;2.77;;;;;;;;;;5054708;28;20199;-80
2023/09/25 00:10:38;;;;;;;4.23;3.83;;;;;;;;;;5054546;28;20207;-79
2023/09/25 00:13:07;;;;;;;4.60;2.90;;;;;;;;;;5053570;28;20200;-79
2023/09/25 00:15:42;;;;;;;2.50;2.30;;;;;;;;;;5054555;28;20255;-80
2023/09/25 00:18:10;;;;;;;4.90;3.50;;;;;;;;;;5054201;28;20392;-81
2023/09/25 00:20:39;;;;;;;3.17;2.80;;;;;;;;;;5054131;28;20199;-80
2023/09/25 00:23:08;;;;;;;4.70;3.33;;;;;;;;;;5053772;28;20203;-79
2023/09/25 00:25:36;;;;;;;3.60;3.10;;;;;;;;;;5054101;28;20230;-80
2023/09/25 00:28:05;;;;;;;6.63;3.40;;;;;;;;;;5054407;28;20202;-80
2023/09/25 00:30:34;;;;;;;3.97;3.63;;;;;;;;;;5054128;28;20264;-80
2023/09/25 00:33:04;;;;;;;4.37;3.27;;;;;;;;;;5053566;28;20203;-79
2023/09/25 00:35:33;;;;;;;4.73;3.60;;;;;;;;;;5054038;28;20268;-79
2023/09/25 00:38:01;;;;;;;4.27;3.83;;;;;;;;;;5053945;28;20228;-80
2023/09/25 00:40:30;;;;;;;5.97;3.83;;;;;;;;;;5053723;28;20198;-80
2023/09/25 00:42:58;;;;;;;6.30;3.70;;;;;;;;;;5053838;28;20230;-79
2023/09/25 00:45:27;;;;;;;5.50;3.70;;;;;;;;;;5053444;28;20214;-80
2023/09/25 00:47:55;;;;;;;2.40;2.20;;;;;;;;;;5053859;28;20221;-80
2023/09/25 00:50:29;;;;;;;4.23;3.60;;;;;;;;;;5053728;28;20224;-80
2023/09/25 00:53:06;;;;;;;3.90;2.97;;;;;;;;;;5053388;28;20236;-79
2023/09/25 00:55:35;;;;;;;3.33;3.07;;;;;;;;;;5054043;28;20202;-80
2023/09/25 00:58:03;;;;;;;5.57;3.70;;;;;;;;;;5053535;28;20241;-80
2023/09/25 01:00:34;;;;;;;2.97;2.77;;;;;;;;;;5053018;28;20274;-80
2023/09/25 01:03:03;;;;;;;6.63;3.53;;;;;;;;;;5053290;28;20209;-80
2023/09/25 01:05:36;;;;;;;5.13;3.33;;;;;;;;;;5053300;28;20222;-79
2023/09/25 01:08:05;;;;;;;7.40;3.87;;;;;;;;;;5053642;28;20194;-80
2023/09/25 01:10:33;;;;;;;4.50;3.27;;;;;;;;;;5053416;28;20202;-83
2023/09/25 01:13:03;;;;;;;3.67;3.37;;;;;;;;;;5053877;28;20206;-83
2023/09/25 01:15:32;;;;;;;3.07;2.77;;;;;;;;;;5053724;28;20206;-83
2023/09/25 01:18:00;;;;;;;4.40;3.90;;;;;;;;;;5053401;28;20209;-83
2023/09/25 01:20:29;;;;;;;4.47;3.07;;;;;;;;;;5053239;28;20256;-83
2023/09/25 01:22:59;;;;;;;5.20;3.00;;;;;;;;;;5053592;28;20202;-82
2023/09/25 01:25:27;;;;;;;2.87;2.47;;;;;;;;;;5053869;28;20271;-82
2023/09/25 01:27:55;;;;;;;3.90;3.13;;;;;;;;;;5053122;28;20194;-83
2023/09/25 01:30:25;;;;;;;3.50;2.67;;;;;;;;;;5053629;28;20207;-83
2023/09/25 01:32:53;;;;;;;4.83;2.77;;;;;;;;;;5053271;28;20195;-80
2023/09/25 01:35:24;;;;;;;7.20;3.50;;;;;;;;;;5052856;28;20226;-80
2023/09/25 01:37:57;;;;;;;3.57;3.00;;;;;;;;;;5052321;28;20229;-79
2023/09/25 01:40:27;;;;;;;4.37;2.90;;;;;;;;;;5052529;28;20293;-79
2023/09/25 01:42:55;;;;;;;5.63;3.70;;;;;;;;;;5053039;28;20211;-79
2023/09/25 01:45:24;;;;;;;5.20;3.83;;;;;;;;;;5052346;28;20219;-80
2023/09/25 01:47:54;;;;;;;4.37;3.57;;;;;;;;;;5052385;28;20277;-80
2023/09/25 01:50:23;;;;;;;5.00;3.13;;;;;;;;;;5052826;28;20203;-79
2023/09/25 01:52:53;;;;;;;5.03;3.03;;;;;;;;;;5052714;28;20206;-79
2023/09/25 01:55:22;;;;;;;3.90;3.10;;;;;;;;;;5052259;28;20206;-80
2023/09/25 01:57:52;;;;;;;3.60;3.27;;;;;;;;;;5052025;28;20234;-79
2023/09/25 02:00:20;;;;;;;4.80;3.00;;;;;;;;;;5052619;28;20208;-79
2023/09/25 02:02:49;;;;;;;3.53;2.37;;;;;;;;;;5052065;28;20270;-80
2023/09/25 02:05:17;;;;;;;3.60;3.23;;;;;;;;;;5052063;28;20218;-79
2023/09/25 02:07:46;;;;;;;3.93;3.03;;;;;;;;;;5052180;28;20206;-79
2023/09/25 02:10:15;;;;;;;4.43;3.27;;;;;;;;;;5052387;28;20194;-79
2023/09/25 02:12:43;;;;;;;4.27;3.80;;;;;;;;;;5052119;28;20248;-80
2023/09/25 02:15:13;;;;;;;3.23;2.93;;;;;;;;;;5051754;28;20198;-79
2023/09/25 02:17:42;;;;;;;4.60;3.17;;;;;;;;;;5052711;28;20238;-80
2023/09/25 02:20:17;;;;;;;6.23;3.50;;;;;;;;;;5052117;28;20236;-79
2023/09/25 02:22:47;;;;;;;3.83;3.10;;;;;;;;;;5051787;28;20205;-80
2023/09/25 02:25:16;;;;;;;4.83;3.33;;;;;;;;;;5051667;28;20218;-79
2023/09/25 02:27:46;;;;;;;5.83;3.53;;;;;;;;;;5051967;28;20203;-80
2023/09/25 02:30:17;;;;;;;3.30;2.93;;;;;;;;;;5052564;28;20202;-79
2023/09/25 02:32:46;;;;;;;3.87;2.77;;;;;;;;;;5051740;28;20292;-80
2023/09/25 02:35:14;;;;;;;4.37;2.97;;;;;;;;;;5052090;28;20202;-79
2023/09/25 02:37:44;;;;;;;5.57;3.27;;;;;;;;;;5057811;28;20230;-80
2023/09/25 02:40:14;;;;;;;4.37;3.30;;;;;;;;;;5058761;28;20206;-79
2023/09/25 02:42:44;;;;;;;4.93;3.30;;;;;;;;;;5058096;28;20251;-79
2023/09/25 02:45:13;;;;;;;3.30;3.00;;;;;;;;;;5058839;28;20214;-80
2023/09/25 02:47:44;;;;;;;3.90;3.33;;;;;;;;;;5058759;28;20228;-79
2023/09/25 02:50:13;;;;;;;5.47;3.00;;;;;;;;;;5058622;28;20204;-79
2023/09/25 02:52:43;;;;;;;3.20;2.90;;;;;;;;;;5057854;28;20198;-80
2023/09/25 02:55:13;;;;;;;1.73;1.40;;;;;;;;;;5058528;28;20247;-79
2023/09/25 02:57:42;;;;;;;4.10;3.40;;;;;;;;;;5058750;28;20289;-83
2023/09/25 03:00:12;;;;;;;3.30;2.90;;;;;;;;;;5058001;28;20234;-83
2023/09/25 03:02:41;;;;;;;4.10;2.60;;;;;;;;;;5058776;28;20206;-83
2023/09/25 03:05:12;;;;;;;3.50;3.20;;;;;;;;;;5059079;28;20253;-83
2023/09/25 03:07:40;;;;;;;4.83;3.17;;;;;;;;;;5059240;28;20195;-83
2023/09/25 03:10:09;;;;;;;3.70;3.00;;;;;;;;;;5058508;28;20206;-83
2023/09/25 03:12:39;;;;;;;3.70;3.03;;;;;;;;;;5059301;28;20205;-83
2023/09/25 03:15:08;;;;;;;3.73;2.77;;;;;;;;;;5059008;28;20202;-82
2023/09/25 03:17:37;;;;;;;4.43;2.60;;;;;;;;;;5058763;28;20198;-83
2023/09/25 03:20:14;;;;;;;3.33;3.03;;;;;;;;;;5058255;28;20293;-83
2023/09/25 03:22:45;;;;;;;4.13;2.97;;;;;;;;;;5058281;28;20202;-82
2023/09/25 03:25:14;;;;;;;3.73;3.20;;;;;;;;;;5058324;28;20199;-83
2023/09/25 03:27:44;;;;;;;3.97;3.57;;;;;;;;;;5058190;28;20238;-83
2023/09/25 03:30:14;;;;;;;4.17;3.40;;;;;;;;;;5057914;28;20198;-83
2023/09/25 03:32:43;;;;;;;4.93;3.20;;;;;;;;;;5059037;28;20266;-82
2023/09/25 03:35:13;;;;;;;3.10;2.70;;;;;;;;;;5058661;28;20195;-82
2023/09/25 03:37:41;;;;;;;3.60;3.30;;;;;;;;;;5058944;28;20226;-83
2023/09/25 03:40:12;;;;;;;4.43;2.70;;;;;;;;;;5058435;28;20293;-82
2023/09/25 03:42:41;;;;;;;3.43;3.13;;;;;;;;;;5058521;28;20234;-83
2023/09/25 03:45:11;;;;;;;3.53;3.10;;;;;;;;;;5058275;28;20209;-83
2023/09/25 03:47:39;;;;;;;5.13;3.67;;;;;;;;;;5056360;28;20225;-83
2023/09/25 03:50:10;;;;;;;4.30;3.10;;;;;;;;;;5054987;28;20202;-83
2023/09/25 03:52:39;;;;;;;5.23;3.40;;;;;;;;;;5055103;28;20213;-83
2023/09/25 03:55:07;;;;;;;4.33;2.93;;;;;;;;;;5054969;28;20206;-83
2023/09/25 03:57:37;;;;;;;4.10;3.70;;;;;;;;;;5054838;28;20206;-83
2023/09/25 04:00:07;;;;;;;3.27;1.70;;;;;;;;;;5054825;28;20238;-83
2023/09/25 04:02:35;;;;;;;2.67;2.33;;;;;;;;;;5054969;28;20209;-83
2023/09/25 04:05:04;;;;;;;3.07;2.77;;;;;;;;;;5054905;28;20304;-83
2023/09/25 04:07:33;;;;;;;6.50;3.40;;;;;;;;;;5054834;28;20228;-83
2023/09/25 04:10:02;;;;;;;4.60;3.60;;;;;;;;;;5054634;28;20293;-83
2023/09/25 04:12:31;;;;;;;4.13;3.43;;;;;;;;;;5054540;28;20201;-83
2023/09/25 04:15:00;;;;;;;4.43;3.63;;;;;;;;;;5054218;28;20297;-83
2023/09/25 04:17:29;;;;;;;3.43;3.00;;;;;;;;;;5054430;28;20202;-83
2023/09/25 04:19:57;;;;;;;4.13;3.33;;;;;;;;;;5054727;28;20229;-83
2023/09/25 04:22:26;;;;;;;4.90;3.40;;;;;;;;;;5054504;28;20205;-82
2023/09/25 04:24:54;;;;;;;4.00;3.60;;;;;;;;;;5054124;28;20210;-83
2023/09/25 04:27:24;;;;;;;3.43;3.13;;;;;;;;;;5054445;28;20368;-83
2023/09/25 04:29:52;;;;;;;2.37;2.10;;;;;;;;;;5054402;28;20207;-83
2023/09/25 04:32:22;;;;;;;6.07;3.73;;;;;;;;;;5054296;28;20213;-83
2023/09/25 04:34:50;;;;;;;7.13;4.00;;;;;;;;;;5054240;28;20222;-84
2023/09/25 04:37:19;;;;;;;6.03;4.20;;;;;;;;;;5054503;28;20225;-83
2023/09/25 04:39:48;;;;;;;5.23;3.97;;;;;;;;;;5054037;28;20202;-83
2023/09/25 04:42:16;;;;;;;6.97;4.07;;;;;;;;;;5054349;28;20233;-82
2023/09/25 04:44:45;;;;;;;5.63;3.50;;;;;;;;;;5053777;28;20207;-80
2023/09/25 04:47:13;;;;;;;6.57;4.00;;;;;;;;;;5053300;28;20207;-79
2023/09/25 04:49:43;;;;;;;4.60;3.87;;;;;;;;;;5053955;28;20203;-83
2023/09/25 04:52:11;;;;;;;5.37;4.77;;;;;;;;;;5053590;28;20209;-83
2023/09/25 04:54:40;;;;;;;4.73;3.77;;;;;;;;;;5053710;28;20198;-83
2023/09/25 04:57:09;;;;;;;3.93;3.30;;;;;;;;;;5053973;28;20244;-83
2023/09/25 04:59:37;;;;;;;4.57;3.77;;;;;;;;;;5052995;28;20298;-83
2023/09/25 05:02:06;;;;;;;5.23;3.70;;;;;;;;;;5053832;28;20212;-83
2023/09/25 05:04:36;;;;;;;3.43;2.90;;;;;;;;;;5053576;28;20248;-79
2023/09/25 05:07:07;;;;;;;3.97;3.20;;;;;;;;;;5053330;28;20316;-79
2023/09/25 05:09:35;;;;;;;4.40;4.00;;;;;;;;;;5053520;28;20225;-80
2023/09/25 05:12:04;;;;;;;7.50;3.63;;;;;;;;;;5052690;28;20275;-80
2023/09/25 05:14:32;;;;;;;4.20;3.80;;;;;;;;;;5053148;28;20205;-80
2023/09/25 05:17:01;;;;;;;3.17;2.63;;;;;;;;;;5053504;28;20194;-80
2023/09/25 05:19:29;;;;;;;4.23;3.70;;;;;;;;;;5052754;28;20190;-80
2023/09/25 05:21:58;;;;;;;7.57;4.03;;;;;;;;;;5052675;28;20260;-80
2023/09/25 05:24:27;;;;;;;4.23;3.27;;;;;;;;;;5052951;28;20234;-79
2023/09/25 05:26:56;;;;;;;5.37;3.60;;;;;;;;;;5052681;28;20312;-80
2023/09/25 05:29:25;;;;;;;3.63;2.87;;;;;;;;;;5052867;28;20206;-79
2023/09/25 05:31:53;;;;;;;4.00;3.60;;;;;;;;;;5052162;28;20290;-81
2023/09/25 05:34:21;;;;;;;5.13;3.50;;;;;;;;;;5052381;28;20206;-81
2023/09/25 05:36:50;;;;;;;6.57;4.07;;;;;;;;;;5052549;28;20222;-81
2023/09/25 05:39:18;;;;;;;4.20;3.63;;;;;;;;;;5052152;28;20241;-81
2023/09/25 05:41:48;;;;;;;3.27;2.97;;;;;;;;;;5052589;28;20244;-82
2023/09/25 05:44:17;;;;;;;7.57;4.23;;;;;;;;;;5052167;28;20210;-82
2023/09/25 05:46:45;;;;;;;4.17;3.77;;;;;;;;;;5052241;28;20217;-85
2023/09/25 05:49:14;;;;;;;5.27;4.10;;;;;;;;;;5051907;28;20249;-85
2023/09/25 05:51:42;;;;;;;3.90;3.50;;;;;;;;;;5052732;28;20461;-85
2023/09/25 05:54:11;;;;;;;4.93;3.90;;;;;;;;;;5052489;28;20221;-84
2023/09/25 05:56:42;;;;;;;5.53;3.83;;;;;;;;;;5052849;28;20332;-85
2023/09/25 05:59:14;;;;;;;6.17;4.60;;;;;;;;;;5052221;28;20254;-84
2023/09/25 06:01:42;;;;;;;6.13;4.17;;;;;;;;;;5052256;28;20202;-85
2023/09/25 06:04:11;;;;;;;5.50;4.20;;;;;;;;;;5052522;28;20209;-84
2023/09/25 06:06:40;;;;;;;5.13;3.93;;;;;;;;;;5051742;28;20202;-85
2023/09/25 06:09:15;;;;;;;4.40;3.70;;;;;;;;;;5052001;28;20206;-84
2023/09/25 06:11:44;;;;;;;3.33;2.70;;;;;;;;;;5051676;28;20224;-83
2023/09/25 06:14:14;;;;;;;4.27;3.60;;;;;;;;;;5051662;28;20202;-82
2023/09/25 06:16:43;;;;;;;5.20;4.10;;;;;;;;;;5051192;28;20233;-83
2023/09/25 06:19:12;;;;;;;4.53;3.83;;;;;;;;;;5051898;28;20198;-84
2023/09/25 06:21:41;;;;;;;4.57;3.87;;;;;;;;;;5051841;28;20208;-85
2023/09/25 06:24:10;;;;;;;4.17;3.37;;;;;;;;;;5052647;28;20241;-84
2023/09/25 06:26:39;;;;;;;4.67;3.80;;;;;;;;;;5052293;28;20202;-83
2023/09/25 06:29:09;;;;;;;5.40;4.10;;;;;;;;;;5052728;28;20206;-83
2023/09/25 06:31:39;;;;;;;3.00;2.77;;;;;;;;;;5052474;28;20203;-82
2023/09/25 06:34:27;;;;;;;2.43;2.23;;;;;;;;;;5051947;28;20228;-83
2023/09/25 06:36:57;;;;;;;5.20;3.57;;;;;;;;;;5052438;28;20233;-83
2023/09/25 06:39:25;;;;;;;4.87;3.23;;;;;;;;;;5052419;28;20202;-82
2023/09/25 06:41:54;;;;;;;2.83;2.53;;;;;;;;;;5052084;28;20198;-80
2023/09/25 06:44:22;;;;;;;4.17;2.70;;;;;;;;;;5051166;28;20206;-80
2023/09/25 06:46:52;;;;;;;6.73;3.43;;;;;;;;;;5051206;28;20306;-80
2023/09/25 06:49:22;;;;;;;3.27;2.97;;;;;;;;;;5051220;28;20220;-79
2023/09/25 06:51:50;;;;;;;3.13;2.73;;;;;;;;;;5051418;28;20206;-80
2023/09/25 06:54:19;;;;;;;5.60;3.57;;;;;;;;;;5051045;28;20202;-80
2023/09/25 06:56:48;;;;;;;2.87;2.40;;;;;;;;;;5051376;28;20293;-80
2023/09/25 06:59:17;;;;;;;4.20;2.77;;;;;;;;;;5051161;28;20329;-77
2023/09/25 07:01:45;;;;;;;4.73;3.20;;;;;;;;;;5051088;28;20202;-80
2023/09/25 07:04:15;;;;;;;3.70;2.93;;;;;;;;;;5051123;28;20198;-79
2023/09/25 07:06:45;;;;;;;6.27;3.57;;;;;;;;;;5051390;28;20199;-79
2023/09/25 07:09:14;;;;;;;3.77;3.07;;;;;;;;;;5051459;28;20253;-79
2023/09/25 07:11:44;;;;;;;2.60;2.30;;;;;;;;;;5050558;28;20234;-80
2023/09/25 07:14:12;;;;;;;4.00;2.87;;;;;;;;;;5051199;28;20230;-80
2023/09/25 07:16:41;;;;;;;4.50;3.20;;;;;;;;;;5051274;28;20199;-80
2023/09/25 07:19:10;;;;;;;7.37;2.93;;;;;;;;;;5051178;28;20198;-80
2023/09/25 07:21:41;;;;;;;4.23;3.23;;;;;;;;;;5050767;28;20205;-80
2023/09/25 07:24:12;;;;;;;3.53;2.30;;;;;;;;;;5055332;28;20250;-80
2023/09/25 07:26:40;;;;;;;2.30;2.03;;;;;;;;;;5055647;28;20229;-80
2023/09/25 07:29:10;;;;;;;6.40;3.13;;;;;;;;;;5054675;28;20222;-80
2023/09/25 07:31:58;;;;;;;5.50;2.67;;;;;;;;;;5054096;28;20260;-80
2023/09/25 07:34:29;;;;;;;3.07;1.80;;;;;;;;;;5055095;28;20202;-80
2023/09/25 07:37:00;;;;;;;4.33;3.27;;;;;;;;;;5054930;28;20317;-80
2023/09/25 07:39:28;;;;;;;2.33;1.77;;;;;;;;;;5054701;28;20357;-80
2023/09/25 07:41:57;;;;;;;9.90;2.37;;;;;;;;;;5054429;28;20206;-79
2023/09/25 07:44:26;;;;;;;6.87;3.20;;;;;;;;;;5060377;28;20214;-80
2023/09/25 07:46:57;;;;;;;3.70;2.77;;;;;;;;;;5069747;28;20201;-79
2023/09/25 07:49:27;;;;;;;4.07;3.63;;;;;;;;;;5072007;28;20210;-80
2023/09/25 07:52:00;;;;;;;4.93;3.00;;;;;;;;;;5071258;28;20199;-80
2023/09/25 07:54:30;;;;;;;5.10;3.57;;;;;;;;;;5071785;28;20218;-81
2023/09/25 07:56:59;;;;;;;6.27;4.03;;;;;;;;;;5074813;28;20225;-80
2023/09/25 07:59:28;;;;;;;4.50;3.20;;;;;;;;;;5073922;28;20224;-80
2023/09/25 08:01:57;;;;;;;5.23;3.33;;;;;;;;;;5073901;28;20206;-79
2023/09/25 08:04:26;;;;;;;4.00;3.63;;;;;;;;;;5074258;28;20199;-80
2023/09/25 08:06:57;;;;;;;4.93;3.83;;;;;;;;;;5073033;28;20287;-80
2023/09/25 08:09:27;;;;;;;4.40;3.37;;;;;;;;;;5070272;28;20239;-81
2023/09/25 08:11:56;;;;;;;5.13;3.63;;;;;;;;;;5068809;28;20239;-80
2023/09/25 08:14:25;;;;;;;3.53;3.17;;;;;;;;;;5074261;28;20357;-80
2023/09/25 08:16:53;;;;;;;4.70;3.83;;;;;;;;;;5074073;28;20204;-80
2023/09/25 08:19:23;;;;;;;3.83;3.40;;;;;;;;;;5074452;28;20226;-80
2023/09/25 08:21:51;;;;;;;4.20;3.47;;;;;;;;;;5074189;28;20207;-81
2023/09/25 08:24:23;;;;;;;3.63;3.13;;;;;;;;;;5066723;28;20454;-80
2023/09/25 08:26:56;;;;;;;6.17;3.40;;;;;;;;;;5066412;28;20338;-82
2023/09/25 08:29:27;;;;;;;3.23;2.73;;;;;;;;;;5070853;28;20223;-81
2023/09/25 08:31:58;;;;;;;3.17;2.13;;;;;;;;;;5073736;28;20219;-82
2023/09/25 08:34:29;;;;;;;5.00;2.33;;;;;;;;;;5069329;28;20324;-81
2023/09/25 08:36:58;;;;;;;4.57;2.17;;;;;;;;;;5068996;28;20314;-81
2023/09/25 08:39:26;;;;;;;5.87;3.40;;;;;;;;;;5069518;28;20263;-80
2023/09/25 08:41:57;;;;;;;5.77;3.53;;;;;;;;;;5067855;28;20329;-81
2023/09/25 08:44:26;;;;;;;5.83;3.93;;;;;;;;;;5067560;28;20482;-80
2023/09/25 08:46:54;;;;;;;4.70;4.10;;;;;;;;;;5067306;28;20214;-81
2023/09/25 08:49:24;;;;;;;5.43;3.83;;;;;;;;;;5072551;28;20235;-82
2023/09/25 08:51:54;;;;;;;6.97;4.27;;;;;;;;;;5073469;28;20208;-81
2023/09/25 08:54:25;;;;;;;6.00;4.00;;;;;;;;;;5065990;28;20212;-82
2023/09/25 08:56:53;;;;;;;5.63;4.43;;;;;;;;;;5066640;28;20219;-82
2023/09/25 08:59:29;;;;;;;4.53;3.80;;;;;;;;;;5068443;28;20286;-82
2023/09/25 09:02:01;;;;;;;4.17;3.70;;;;;;;;;;5072531;28;20206;-82
2023/09/25 09:04:29;;;;;;;3.93;3.47;;;;;;;;;;5072864;28;20226;-82
2023/09/25 09:07:01;;;;;;;6.07;4.53;;;;;;;;;;5073047;28;20201;-82
2023/09/25 09:09:31;;;;;;;5.23;4.37;;;;;;;;;;5073049;28;20270;-82
2023/09/25 09:12:00;;;;;;;7.20;3.67;;;;;;;;;;5072954;28;20203;-82
2023/09/25 09:14:37;;;;;;;6.50;4.30;;;;;;;;;;5072275;28;20223;-80
2023/09/25 09:17:06;;;;;;;4.13;2.60;;;;;;;;;;5072807;28;20219;-82
2023/09/25 09:19:38;;;;;;;4.57;3.47;;;;;;;;;;5072591;28;20204;-82
2023/09/25 09:22:08;;;;;;;4.43;2.50;;;;;;;;;;5072115;28;20219;-82
2023/09/25 09:24:39;;;;;;;4.80;3.00;;;;;;;;;;5071415;28;20454;-82
2023/09/25 09:27:07;;;;;;;5.47;4.13;;;;;;;;;;5071988;28;20202;-82
2023/09/25 09:29:38;;;;;;;5.30;3.57;;;;;;;;;;5071631;28;20268;-82
2023/09/25 09:32:07;;;;;;;2.73;2.47;;;;;;;;;;5072055;28;20194;-82
2023/09/25 09:34:38;;;;;;;4.77;2.87;;;;;;;;;;5072338;28;20194;-82
2023/09/25 09:37:08;;;;;;;3.30;2.67;;;;;;;;;;5072343;28;20213;-82
2023/09/25 09:39:37;;;;;;;2.97;2.20;;;;;;;;;;5072284;28;20198;-82
2023/09/25 09:42:14;;;;;;;5.67;2.97;;;;;;;;;;5071797;28;20197;-82
2023/09/25 09:44:45;;;;;;;4.47;2.63;;;;;;;;;;5072285;28;20236;-82
2023/09/25 09:47:14;;;;;;;5.23;3.40;;;;;;;;;;5071257;28;20211;-82
2023/09/25 09:49:44;;;;;;;6.57;3.50;;;;;;;;;;5071699;28;20233;-82
2023/09/25 09:52:13;;;;;;;4.47;2.33;;;;;;;;;;5072481;28;20197;-81
2023/09/25 09:54:41;;;;;;;3.80;2.50;;;;;;;;;;5072256;28;20275;-81
2023/09/25 09:57:10;;;;;;;4.33;2.37;;;;;;;;;;5072875;28;20229;-81
2023/09/25 09:59:39;;;;;;;2.33;1.80;;;;;;;;;;5072053;28;20233;-81
2023/09/25 10:02:09;;;;;;;5.53;3.17;;;;;;;;;;5071119;28;20197;-82
2023/09/25 10:04:37;;;;;;;2.93;2.63;;;;;;;;;;5071304;28;20209;-81
2023/09/25 10:07:09;;;;;;;4.13;3.13;;;;;;;;;;5070902;28;20193;-80
2023/09/25 10:09:37;;;;;;;4.47;3.70;;;;;;;;;;5070403;28;20221;-80
2023/09/25 10:12:06;;;;;;;3.53;2.73;;;;;;;;;;5072570;28;20206;-81
2023/09/25 10:14:40;;;;;;;2.87;2.30;;;;;;;;;;5072504;28;20201;-81
2023/09/25 10:17:10;;;;;;;3.37;2.73;;;;;;;;;;5072784;28;20248;-81
2023/09/25 10:19:50;;;;;;;6.83;4.17;;;;;;;;;;5072509;28;20213;-81
2023/09/25 10:22:20;;;;;;;3.60;2.63;;;;;;;;;;5071919;28;20193;-81
2023/09/25 10:24:49;;;;;;;1.53;1.30;;;;;;;;;;5072466;28;20205;-81
2023/09/25 10:27:18;;;;;;;4.70;2.93;;;;;;;;;;5072681;28;20204;-80
2023/09/25 10:30:03;;;;;;;4.73;2.77;;;;;;;;;;5072552;28;20217;-81
2023/09/25 10:32:33;;;;;;;4.77;2.53;;;;;;;;;;5072059;28;20209;-81
2023/09/25 10:35:16;;;;;;;5.33;3.57;;;;;;;;;;5072132;28;20288;-81
2023/09/25 10:37:59;;;;;;;1.83;1.57;;;;;;;;;;5071539;28;20229;-81
2023/09/25 10:40:37;;;;;;;3.93;2.53;;;;;;;;;;5072989;28;20253;-81
2023/09/25 10:43:05;;;;;;;2.80;2.43;;;;;;;;;;5072219;28;20203;-79
2023/09/25 10:45:35;;;;;;;3.60;3.27;;;;;;;;;;5072136;28;20200;-81
2023/09/25 10:48:06;;;;;;;3.50;2.80;;;;;;;;;;5071936;28;20262;-81
2023/09/25 10:50:37;;;;;;;2.97;1.60;;;;;;;;;;5072442;28;20244;-81
2023/09/25 10:53:06;;;;;;;3.20;2.33;;;;;;;;;;5072526;28;20203;-81
2023/09/25 10:55:35;;;;;;;0.97;0.73;;;;;;;;;;5071811;28;20221;-81
2023/09/25 10:58:04;;;;;;;4.67;3.47;;;;;;;;;;5074098;28;20207;-81
2023/09/25 11:00:34;;;;;;;9.43;3.47;;;;;;;;;;5075907;28;20252;-81
2023/09/25 11:03:03;;;;;;;5.17;2.90;;;;;;;;;;5076044;28;20199;-80
2023/09/25 11:05:34;;;;;;;3.57;2.40;;;;;;;;;;5075446;28;20192;-81
2023/09/25 11:08:04;;;;;;;5.40;3.70;;;;;;;;;;5076361;28;20212;-81
2023/09/25 11:10:33;;;;;;;4.50;2.90;;;;;;;;;;5075857;28;20229;-82
2023/09/25 11:13:03;;;;;;;2.70;1.90;;;;;;;;;;5075642;28;20212;-80
2023/09/25 11:15:35;;;;;;;2.87;2.10;;;;;;;;;;5075534;28;20198;-81
2023/09/25 11:18:04;;;;;;;9.17;3.00;;;;;;;;;;5076272;28;20287;-78
2023/09/25 11:20:34;;;;;;;5.03;3.13;;;;;;;;;;5075715;28;20206;-81
2023/09/25 11:23:08;;;;;;;3.77;1.33;;;;;;;;;;5075481;28;20201;-81
2023/09/25 11:25:48;;;;;;;3.00;2.13;;;;;;;;;;5075800;28;20362;-81
2023/09/25 11:28:18;;;;;;;5.33;2.50;;;;;;;;;;5075289;28;20205;-81
2023/09/25 11:30:47;;;;;;;3.50;2.47;;;;;;;;;;5075616;28;20225;-81
2023/09/25 11:33:18;;;;;;;1.03;1.03;;;;;;;;;;5075088;28;20287;-81
2023/09/25 11:35:49;;;;;;;4.67;2.57;;;;;;;;;;5076299;28;20194;-83
2023/09/25 11:38:23;;;;;;;3.20;1.13;;;;;;;;;;5076277;28;20421;-81
2023/09/25 11:40:53;;;;;;;2.53;2.13;;;;;;;;;;5075784;28;20400;-81
2023/09/25 11:43:24;;;;;;;4.40;3.00;;;;;;;;;;5074778;28;20195;-81
2023/09/25 11:45:53;;;;;;;4.50;2.10;;;;;;;;;;5076277;28;20210;-83
2023/09/25 11:48:22;;;;;;;5.93;2.70;;;;;;;;;;5076880;28;20461;-84
2023/09/25 11:50:52;;;;;;;1.70;1.60;;;;;;;;;;5075979;28;20216;-84
2023/09/25 11:53:21;;;;;;;5.03;2.77;;;;;;;;;;5076085;28;20208;-84
2023/09/25 11:55:50;;;;;;;7.57;3.00;;;;;;;;;;5076859;28;20205;-84
2023/09/25 11:58:18;;;;;;;2.07;1.27;;;;;;;;;;5076825;28;20254;-84
2023/09/25 12:00:47;;;;;;;1.73;0.63;;;;;;;;;;5075525;28;20246;-84
2023/09/25 12:03:23;;;;;;;1.80;1.50;;;;;;;;;;5063167;28;20206;-83
2023/09/25 12:05:53;;;;;;;0.87;0.83;;;;;;;;;;5053966;28;20216;-83
2023/09/25 12:08:22;;;;;;;3.37;1.73;;;;;;;;;;5071579;28;20225;-84
2023/09/25 12:10:52;;;;;;;5.77;2.70;;;;;;;;;;5060816;28;20215;-84
2023/09/25 12:13:22;;;;;;;3.00;1.10;;;;;;;;;;5058428;28;20211;-84
2023/09/25 12:15:50;;;;;;;3.50;1.43;;;;;;;;;;5068613;28;20227;-83
2023/09/25 12:18:19;;;;;;;3.30;1.70;;;;;;;;;;5065277;28;20258;-84
2023/09/25 12:20:48;;;;;;;2.13;1.50;;;;;;;;;;5061119;28;20228;-84
2023/09/25 12:23:18;;;;;;;4.23;2.23;;;;;;;;;;5062631;28;20203;-84
2023/09/25 12:25:47;;;;;;;3.13;2.93;;;;;;;;;;5059856;28;20209;-84
2023/09/25 12:28:15;;;;;;;1.03;1.03;;;;;;;;;;5059913;28;20199;-85
2023/09/25 12:30:44;;;;;;;5.30;2.23;;;;;;;;;;5065358;28;20310;-83
2023/09/25 12:33:13;;;;;;;1.03;0.90;;;;;;;;;;5064596;28;20225;-84
2023/09/25 12:35:42;;;;;;;4.80;2.00;;;;;;;;;;5063912;28;20205;-84
2023/09/25 12:38:11;;;;;;;2.67;1.23;;;;;;;;;;5064563;28;20223;-84
2023/09/25 12:40:41;;;;;;;1.10;1.00;;;;;;;;;;5063977;28;20285;-84
2023/09/25 12:43:10;;;;;;;0.83;0.80;;;;;;;;;;5059264;28;20203;-81
2023/09/25 12:45:38;;;;;;;1.50;1.13;;;;;;;;;;5068890;28;20250;-81
2023/09/25 12:48:08;;;;;;;0.23;0.23;;;;;;;;;;5062557;28;20213;-81
2023/09/25 12:50:37;;;;;;;0.87;0.67;;;;;;;;;;5061803;28;20208;-81
2023/09/25 12:53:05;;;;;;;1.97;1.30;;;;;;;;;;5066149;28;20210;-83
2023/09/25 12:55:34;;;;;;;2.60;0.87;;;;;;;;;;5066482;28;20223;-83
2023/09/25 12:58:05;;;;;;;1.70;1.57;;;;;;;;;;5066524;28;20303;-84
2023/09/25 13:00:34;;;;;;;1.37;0.77;;;;;;;;;;5065194;28;20235;-84
2023/09/25 13:03:02;;;;;;;1.97;1.17;;;;;;;;;;5064708;28;20206;-84
2023/09/25 13:05:33;;;;;;;1.27;1.13;;;;;;;;;;5061439;28;20269;-80
2023/09/25 13:08:02;;;;;;;1.17;1.13;;;;;;;;;;5061988;28;20206;-83
2023/09/25 13:10:30;;;;;;;1.20;1.03;;;;;;;;;;5067016;28;20205;-84
2023/09/25 13:12:59;;;;;;;3.87;1.30;;;;;;;;;;5062883;28;20294;-84
2023/09/25 13:15:29;;;;;;;0.87;0.87;;;;;;;;;;5067564;28;20212;-83
2023/09/25 13:17:57;;;;;;;1.90;1.80;;;;;;;;;;5066864;28;20284;-84
2023/09/25 13:20:26;;;;;;;8.47;1.30;;;;;;;;;;5062878;28;20216;-84
2023/09/25 13:22:54;;;;;;;0.50;0.50;;;;;;;;;;5062701;28;20207;-84
2023/09/25 13:25:24;;;;;;;1.80;0.90;;;;;;;;;;5062790;28;20238;-84
2023/09/25 13:27:52;;;;;;;2.70;1.30;;;;;;;;;;5062725;28;20201;-84
2023/09/25 13:30:21;;;;;;;2.60;0.90;;;;;;;;;;5064841;28;20214;-83
2023/09/25 13:32:51;;;;;;;0.23;0.23;;;;;;;;;;5065612;28;20237;-82
2023/09/25 13:35:22;;;;;;;0.70;0.70;;;;;;;;;;5064860;28;20216;-82
2023/09/25 13:37:51;;;;;;;1.90;1.80;;;;;;;;;;5064135;28;20234;-82
2023/09/25 13:40:21;;;;;;;2.80;1.33;;;;;;;;;;5063670;28;20198;-81
2023/09/25 13:42:54;;;;;;;2.57;2.33;;;;;;;;;;5061740;28;20262;-84
2023/09/25 13:45:22;;;;;;;1.93;1.50;;;;;;;;;;5063253;28;20213;-84
2023/09/25 13:47:56;;;;;;;6.20;3.40;;;;;;;;;;5065661;28;20206;-85
2023/09/25 13:50:24;;;;;;;6.67;2.70;;;;;;;;;;5069529;28;20249;-85
2023/09/25 13:52:54;;;;;;;0.83;0.83;;;;;;;;;;5056712;28;20233;-86
2023/09/25 13:55:23;;;;;;;4.80;1.57;;;;;;;;;;5051993;28;20491;-85
2023/09/25 13:57:52;;;;;;;1.13;0.93;;;;;;;;;;5066900;28;20596;-85
2023/09/25 14:00:23;;;;;;;0.20;0.20;;;;;;;;;;5069281;28;20248;-85
2023/09/25 14:02:52;;;;;;;3.50;2.33;;;;;;;;;;5052123;28;20224;-86
2023/09/25 14:05:22;;;;;;;1.97;1.83;;;;;;;;;;5063708;28;20241;-84
2023/09/25 14:07:51;;;;;;;0.40;0.40;;;;;;;;;;5068285;28;20272;-85
2023/09/25 14:10:19;;;;;;;3.23;1.43;;;;;;;;;;5060575;28;20215;-84
2023/09/25 14:12:48;;;;;;;2.47;2.27;;;;;;;;;;5063292;28;20226;-84
2023/09/25 14:15:17;;;;;;;5.20;2.60;;;;;;;;;;5065015;28;20246;-86
2023/09/25 14:17:49;;;;;;;6.27;2.60;;;;;;;;;;5058541;28;20203;-86
2023/09/25 14:20:18;;;;;;;2.87;1.90;;;;;;;;;;5059052;28;20214;-84
2023/09/25 14:22:48;;;;;;;4.73;1.73;;;;;;;;;;5066148;28;20206;-85
2023/09/25 14:25:17;;;;;;;2.50;1.00;;;;;;;;;;5061585;28;20205;-86
2023/09/25 14:27:46;;;;;;;8.83;6.30;;;;;;;;;;5065971;28;20222;-86
2023/09/25 14:30:15;;;;;;;0.50;0.50;;;;;;;;;;5061914;28;20230;-85
2023/09/25 14:32:45;;;;;;;8.87;2.27;;;;;;;;;;5061188;28;20258;-86
2023/09/25 14:35:17;;;;;;;1.83;1.73;;;;;;;;;;5065082;28;20203;-85
2023/09/25 14:37:46;;;;;;;8.03;1.40;;;;;;;;;;5058817;28;20239;-84
2023/09/25 14:40:17;;;;;;;7.17;2.50;;;;;;;;;;5062233;28;20197;-85
2023/09/25 14:42:48;;;;;;;2.00;1.17;;;;;;;;;;5061406;28;20296;-86
2023/09/25 14:45:20;;;;;;;4.63;2.27;;;;;;;;;;5062547;28;20292;-85
2023/09/25 14:47:49;;;;;;;1.03;0.83;;;;;;;;;;5066056;28;20213;-85
2023/09/25 14:50:18;;;;;;;5.60;2.57;;;;;;;;;;5064259;28;20209;-84
2023/09/25 14:52:49;;;;;;;2.10;1.70;;;;;;;;;;5062403;28;20248;-85
2023/09/25 14:55:19;;;;;;;6.40;2.43;;;;;;;;;;5057778;28;20261;-85
2023/09/25 14:57:49;;;;;;;4.70;2.97;;;;;;;;;;5063178;28;20212;-81